Time;durP1;ratioP1;P1;durP2;ratioP2;P2;SDS_P1;SDS_P2;PMS_P1;PMS_P2;Temp;Humidity;BMP_temperature;BMP_pressure;BME280_temperature;BME280_humidity;BME280_pressure;Samples;Min_cycle;Max_cycle;Signal;HPM_P1;HPM_P2
2024/03/23 00:00:27;;;;;;;10.90;8.80;;;;;;;10.98;88.73;97465.03;4030973;29;21220;-85
2024/03/23 00:02:34;;;;;;;8.27;7.47;;;;;;;10.94;88.63;97458.38;4047959;29;20704;-87
2024/03/23 00:04:37;;;;;;;9.03;8.10;;;;;;;10.91;89.19;97456.00;4061673;29;21231;-86
2024/03/23 00:06:43;;;;;;;11.93;8.90;;;;;;;10.89;88.50;97449.28;4063385;29;20671;-86
2024/03/23 00:08:53;;;;;;;10.10;8.63;;;;;;;10.84;88.78;97454.03;4061708;29;21220;-85
2024/03/23 00:11:03;;;;;;;11.50;8.67;;;;;;;10.72;89.18;97446.34;4047160;29;20643;-86
2024/03/23 00:13:09;;;;;;;11.50;8.30;;;;;;;10.62;89.19;97438.44;4029552;29;21262;-86
2024/03/23 00:15:15;;;;;;;10.37;8.80;;;;;;;10.61;88.59;97436.75;4061811;29;20638;-86
2024/03/23 00:17:21;;;;;;;14.03;8.40;;;;;;;10.61;88.98;97423.72;4031531;29;21319;-86
2024/03/23 00:19:26;;;;;;;11.00;8.10;;;;;;;10.55;88.96;97423.38;4046368;29;20738;-86
2024/03/23 00:21:34;;;;;;;11.13;9.37;;;;;;;10.53;89.01;97420.06;4046985;29;21257;-86
2024/03/23 00:23:39;;;;;;;14.23;9.03;;;;;;;10.53;89.71;97417.47;4026507;29;20998;-85
2024/03/23 00:25:45;;;;;;;10.20;8.77;;;;;;;10.51;89.18;97406.34;4056514;29;20631;-85
2024/03/23 00:27:51;;;;;;;11.17;8.70;;;;;;;10.44;89.61;97411.19;4044678;29;20620;-85
2024/03/23 00:29:57;;;;;;;13.00;8.57;;;;;;;10.40;89.87;97408.94;4047584;29;20659;-86
2024/03/23 00:32:02;;;;;;;11.77;8.57;;;;;;;10.35;89.78;97411.09;4063923;29;20623;-85
2024/03/23 00:34:08;;;;;;;9.70;8.20;;;;;;;10.35;89.82;97405.88;4046891;29;20665;-86
2024/03/23 00:36:14;;;;;;;10.67;8.50;;;;;;;10.32;90.35;97400.91;4041254;29;20698;-86
2024/03/23 00:38:20;;;;;;;9.43;8.40;;;;;;;10.32;90.39;97396.50;4032196;29;20652;-86
2024/03/23 00:40:23;;;;;;;11.10;8.33;;;;;;;10.32;90.01;97387.88;4064171;29;21030;-86
2024/03/23 00:42:26;;;;;;;9.33;7.93;;;;;;;10.32;90.07;97386.09;4048521;29;21247;-86
2024/03/23 00:44:30;;;;;;;9.40;8.00;;;;;;;10.32;89.89;97385.28;4046735;29;20634;-86
2024/03/23 00:46:34;;;;;;;10.60;8.33;;;;;;;10.32;90.19;97384.44;4046878;29;20620;-85
2024/03/23 00:48:37;;;;;;;10.20;8.20;;;;;;;10.30;90.79;97381.13;4062391;29;20623;-86
2024/03/23 00:50:41;;;;;;;11.33;8.10;;;;;;;10.28;90.58;97378.63;4064529;29;20654;-86
2024/03/23 00:52:45;;;;;;;13.57;8.50;;;;;;;10.28;90.27;97381.22;4046696;29;20638;-86
2024/03/23 00:54:49;;;;;;;9.00;8.10;;;;;;;10.28;90.62;97370.81;4061930;29;21205;-86
2024/03/23 00:56:50;;;;;;;9.90;7.60;;;;;;;10.30;91.14;97371.53;4058027;29;20627;-85
2024/03/23 00:58:52;;;;;;;13.93;8.40;;;;;;;10.28;90.33;97368.22;4044502;29;20650;-86
2024/03/23 01:00:57;;;;;;;9.37;8.37;;;;;;;10.30;90.29;97374.16;4043222;29;20624;-85
2024/03/23 01:02:59;;;;;;;9.10;7.53;;;;;;;10.29;90.08;97359.44;4046407;29;21122;-85
2024/03/23 01:05:00;;;;;;;14.30;8.53;;;;;;;10.29;90.36;97364.66;4027805;29;20626;-86
2024/03/23 01:07:03;;;;;;;17.40;8.70;;;;;;;10.27;90.60;97361.34;4041844;29;20692;-86
2024/03/23 01:09:04;;;;;;;10.30;8.20;;;;;;;10.27;90.39;97353.53;4045063;29;20621;-86
2024/03/23 01:11:08;;;;;;;28.57;8.47;;;;;;;10.25;90.47;97352.81;4040429;29;20624;-86
2024/03/23 01:13:09;;;;;;;15.70;8.20;;;;;;;10.24;89.72;97352.94;4059098;29;20634;-86
2024/03/23 01:15:12;;;;;;;14.90;8.83;;;;;;;10.20;90.18;97343.72;4043198;29;20617;-86
2024/03/23 01:17:14;;;;;;;10.83;7.80;;;;;;;10.12;89.61;97340.91;4059007;29;20635;-85
2024/03/23 01:19:16;;;;;;;13.43;7.73;;;;;;;10.08;89.62;97342.88;4056055;29;20659;-85
2024/03/23 01:21:17;;;;;;;13.70;8.17;;;;;;;10.09;89.93;97339.34;4038401;29;20675;-85
2024/03/23 01:23:20;;;;;;;12.13;7.90;;;;;;;10.11;90.45;97339.22;4057536;29;21005;-86
2024/03/23 01:25:21;;;;;;;11.10;8.67;;;;;;;10.16;90.45;97331.88;4060584;29;20634;-86
2024/03/23 01:27:25;;;;;;;11.13;8.50;;;;;;;10.18;91.15;97340.38;4044813;29;21253;-86
2024/03/23 01:29:27;;;;;;;8.30;7.50;;;;;;;10.20;91.20;97341.94;4076307;29;20622;-86
2024/03/23 01:31:30;;;;;;;9.87;7.37;;;;;;;10.22;92.34;97336.59;4044792;29;20643;-86
2024/03/23 01:33:31;;;;;;;12.40;8.47;;;;;;;10.23;91.50;97333.88;4044905;29;20680;-85
2024/03/23 01:35:32;;;;;;;10.23;8.23;;;;;;;10.23;91.06;97322.63;4057201;29;20733;-86
2024/03/23 01:37:35;;;;;;;11.70;7.90;;;;;;;10.24;91.31;97309.47;4060938;29;20634;-86
2024/03/23 01:39:37;;;;;;;13.90;8.40;;;;;;;10.26;91.74;97307.56;4042542;29;20652;-86
2024/03/23 01:41:42;;;;;;;9.33;7.30;;;;;;;10.27;91.14;97303.19;4039173;29;20623;-86
2024/03/23 01:43:45;;;;;;;9.70;7.93;;;;;;;10.23;91.53;97312.22;4060455;29;20912;-86
2024/03/23 01:45:47;;;;;;;8.50;7.53;;;;;;;10.22;91.98;97313.16;4058226;29;20694;-85
2024/03/23 01:47:49;;;;;;;8.70;7.80;;;;;;;10.20;91.20;97308.06;4060090;29;21063;-85
2024/03/23 01:49:51;;;;;;;9.13;8.03;;;;;;;10.22;91.45;97306.16;4059430;29;20739;-86
2024/03/23 01:51:53;;;;;;;11.47;8.63;;;;;;;10.22;91.69;97308.75;4042833;29;20672;-85
2024/03/23 01:53:57;;;;;;;11.20;7.77;;;;;;;10.24;91.44;97296.44;4042381;29;20643;-86
2024/03/23 01:56:01;;;;;;;9.40;8.30;;;;;;;10.27;92.06;97300.56;4058353;29;20619;-85
2024/03/23 01:58:04;;;;;;;9.20;7.30;;;;;;;10.27;91.60;97288.38;4039159;29;20748;-85
2024/03/23 02:00:08;;;;;;;10.70;8.47;;;;;;;10.22;92.37;97282.69;4044258;29;21210;-86
2024/03/23 02:02:19;;;;;;;11.20;7.97;;;;;;;10.20;92.63;97282.00;4054035;29;20726;-86
2024/03/23 02:04:20;;;;;;;9.53;8.53;;;;;;;10.18;91.88;97273.50;4061256;29;20623;-86
2024/03/23 02:06:23;;;;;;;9.70;7.63;;;;;;;10.15;91.80;97278.09;4043258;29;20667;-86
2024/03/23 02:08:25;;;;;;;10.73;8.77;;;;;;;10.16;91.96;97274.56;4043675;29;20633;-85
2024/03/23 02:10:27;;;;;;;10.73;8.40;;;;;;;10.16;91.57;97270.16;4060575;29;20619;-86
2024/03/23 02:12:28;;;;;;;9.93;7.70;;;;;;;10.17;91.82;97264.00;4045875;29;20682;-85
2024/03/23 02:14:32;;;;;;;9.80;6.80;;;;;;;10.19;92.08;97261.28;4035952;29;20625;-85
2024/03/23 02:16:35;;;;;;;10.70;7.40;;;;;;;10.18;91.89;97262.22;4041093;29;20668;-85
2024/03/23 02:18:38;;;;;;;9.20;7.20;;;;;;;10.17;92.09;97257.97;4056453;29;20643;-86
2024/03/23 02:20:40;;;;;;;10.33;7.20;;;;;;;10.16;91.66;97249.31;4043330;29;20643;-85
2024/03/23 02:22:42;;;;;;;8.13;7.00;;;;;;;10.08;91.79;97251.72;4044394;29;20781;-86
2024/03/23 02:24:45;;;;;;;9.27;7.57;;;;;;;10.04;91.81;97252.94;4054977;29;20631;-85
2024/03/23 02:26:48;;;;;;;10.67;7.07;;;;;;;10.01;91.57;97242.75;4042496;29;20652;-86
2024/03/23 02:28:49;;;;;;;8.00;7.20;;;;;;;10.00;91.81;97255.91;4042472;29;20641;-86
2024/03/23 02:30:51;;;;;;;8.80;6.80;;;;;;;9.98;91.63;97247.34;4056215;29;20631;-85
2024/03/23 02:32:54;;;;;;;8.47;7.10;;;;;;;9.98;91.21;97245.59;4044627;29;20659;-86
2024/03/23 02:34:56;;;;;;;9.27;7.13;;;;;;;9.98;91.92;97247.34;4053826;29;20652;-85
2024/03/23 02:36:58;;;;;;;7.93;7.13;;;;;;;9.96;91.92;97231.84;4041929;29;20688;-85
2024/03/23 02:39:01;;;;;;;9.70;7.47;;;;;;;9.97;91.65;97238.72;4038151;29;21287;-86
2024/03/23 02:41:04;;;;;;;11.53;8.10;;;;;;;9.96;92.34;97247.47;4058249;29;20658;-86
2024/03/23 02:43:06;;;;;;;9.50;7.40;;;;;;;9.94;92.12;97244.19;4038295;29;20659;-85
2024/03/23 02:45:09;;;;;;;8.80;6.63;;;;;;;9.95;92.26;97245.00;4049532;29;20626;-85
2024/03/23 02:47:11;;;;;;;10.00;7.40;;;;;;;9.94;92.01;97228.56;4028113;29;20761;-86
2024/03/23 02:49:14;;;;;;;9.50;7.47;;;;;;;9.93;91.56;97228.63;4041063;29;20701;-85
2024/03/23 02:51:16;;;;;;;9.73;7.57;;;;;;;9.90;92.09;97227.09;4060455;29;20925;-85
2024/03/23 02:53:18;;;;;;;12.77;7.27;;;;;;;9.89;92.30;97235.88;4058201;29;20699;-85
2024/03/23 02:55:21;;;;;;;9.07;7.37;;;;;;;9.90;92.58;97227.09;4060205;29;20627;-85
2024/03/23 02:57:23;;;;;;;9.27;7.63;;;;;;;9.91;91.87;97218.34;4057408;29;21013;-85
2024/03/23 02:59:26;;;;;;;8.40;6.83;;;;;;;9.90;92.24;97216.69;4057287;29;20655;-85
2024/03/23 03:01:27;;;;;;;6.93;6.23;;;;;;;9.89;92.27;97212.44;4042401;29;20628;-85
2024/03/23 03:03:29;;;;;;;8.60;6.80;;;;;;;9.84;91.68;97204.16;4060543;29;20666;-85
2024/03/23 03:05:30;;;;;;;9.00;7.30;;;;;;;9.82;92.23;97210.44;4059751;29;20659;-85
2024/03/23 03:07:33;;;;;;;9.10;7.00;;;;;;;9.81;92.16;97198.38;4073592;29;20714;-85
2024/03/23 03:09:35;;;;;;;9.20;7.03;;;;;;;9.81;91.89;97205.34;4052103;29;21070;-85
2024/03/23 03:11:37;;;;;;;9.13;6.90;;;;;;;9.78;92.12;97211.63;4059645;29;20615;-85
2024/03/23 03:13:40;;;;;;;9.10;6.80;;;;;;;9.79;91.79;97207.22;4040176;29;20740;-85
2024/03/23 03:15:42;;;;;;;8.77;7.63;;;;;;;9.78;92.51;97210.81;4026293;29;21199;-85
2024/03/23 03:17:45;;;;;;;8.20;7.20;;;;;;;9.78;92.36;97210.81;4029477;29;20644;-86
2024/03/23 03:19:47;;;;;;;8.50;7.10;;;;;;;9.76;91.89;97220.50;4045526;29;21459;-85
2024/03/23 03:21:49;;;;;;;8.07;7.23;;;;;;;9.74;92.13;97209.38;4040669;29;20620;-85
2024/03/23 03:23:51;;;;;;;9.20;7.50;;;;;;;9.73;91.56;97207.75;4055296;29;20639;-85
2024/03/23 03:25:52;;;;;;;7.90;6.63;;;;;;;9.68;92.39;97210.72;4070316;29;21210;-85
2024/03/23 03:27:55;;;;;;;8.77;6.90;;;;;;;9.60;91.79;97207.03;4071759;29;21286;-85
2024/03/23 03:29:59;;;;;;;9.93;7.33;;;;;;;9.54;91.84;97202.31;4049183;29;20632;-85
2024/03/23 03:32:03;;;;;;;7.93;7.10;;;;;;;9.54;92.81;97202.31;4045994;29;20660;-85
2024/03/23 03:34:04;;;;;;;9.30;7.40;;;;;;;9.53;92.34;97185.88;4046737;29;20635;-86
2024/03/23 03:36:07;;;;;;;8.33;7.50;;;;;;;9.52;91.76;97191.22;4048204;29;20669;-85
2024/03/23 03:38:08;;;;;;;8.27;7.40;;;;;;;9.49;91.38;97181.03;4061237;29;20611;-85
2024/03/23 03:40:14;;;;;;;8.20;7.40;;;;;;;9.44;91.15;97185.75;4062924;29;21319;-85
2024/03/23 03:42:16;;;;;;;10.33;6.73;;;;;;;9.43;92.04;97189.31;4055361;29;21355;-85
2024/03/23 03:44:18;;;;;;;8.40;6.87;;;;;;;9.43;91.63;97179.72;4056490;29;21296;-85
2024/03/23 03:46:21;;;;;;;9.53;6.63;;;;;;;9.45;91.98;97182.22;4040890;29;20643;-86
2024/03/23 03:48:23;;;;;;;8.17;7.00;;;;;;;9.45;91.85;97174.41;4061365;29;20623;-85
2024/03/23 03:50:25;;;;;;;11.10;7.97;;;;;;;9.47;91.76;97177.72;4062841;29;20635;-85
2024/03/23 03:52:27;;;;;;;8.73;7.40;;;;;;;9.49;91.43;97175.84;4031842;29;21392;-86
2024/03/23 03:54:28;;;;;;;12.60;8.03;;;;;;;9.51;92.06;97186.94;4046566;29;20628;-85
2024/03/23 03:56:30;;;;;;;8.03;7.07;;;;;;;9.49;91.88;97178.44;4076024;29;20626;-85
2024/03/23 03:58:32;;;;;;;9.40;6.97;;;;;;;9.52;92.16;97180.81;4062499;29;20622;-86
2024/03/23 04:00:33;;;;;;;8.53;6.60;;;;;;;9.52;92.08;97168.59;4056778;29;20631;-85
2024/03/23 04:02:37;;;;;;;7.67;6.33;;;;;;;9.51;91.71;97166.13;4044884;29;20999;-85
2024/03/23 04:04:38;;;;;;;8.03;6.20;;;;;;;9.51;92.42;97161.72;4057812;29;20700;-85
2024/03/23 04:06:40;;;;;;;11.10;7.37;;;;;;;9.52;92.21;97157.38;4077538;29;21271;-85
2024/03/23 04:08:42;;;;;;;10.97;8.60;;;;;;;9.42;91.82;97139.03;4027039;29;20633;-85
2024/03/23 04:10:45;;;;;;;9.27;8.10;;;;;;;9.38;92.26;97124.63;4062351;29;20627;-86
2024/03/23 04:12:47;;;;;;;7.83;6.63;;;;;;;9.32;91.33;97113.03;4057116;29;20627;-85
2024/03/23 04:14:49;;;;;;;8.83;6.60;;;;;;;9.21;90.82;97106.09;4059967;29;21327;-85
2024/03/23 04:16:50;;;;;;;7.57;6.77;;;;;;;9.16;90.95;97107.41;4026463;29;21380;-85
2024/03/23 04:18:54;;;;;;;10.37;7.10;;;;;;;9.13;92.03;97110.25;4031183;29;20656;-85
2024/03/23 04:20:56;;;;;;;10.10;8.10;;;;;;;9.16;91.97;97110.00;4045751;29;20742;-85
2024/03/23 04:22:58;;;;;;;9.00;7.33;;;;;;;9.25;92.76;97102.31;4028408;29;20636;-85
2024/03/23 04:24:59;;;;;;;9.63;7.20;;;;;;;9.41;92.95;97098.38;4058943;29;20719;-85
2024/03/23 04:27:01;;;;;;;7.10;6.27;;;;;;;9.54;93.10;97101.63;4057095;29;20611;-85
2024/03/23 04:29:04;;;;;;;7.80;7.00;;;;;;;9.69;93.59;97102.19;4045328;29;20632;-86
2024/03/23 04:31:07;;;;;;;9.13;6.77;;;;;;;9.77;93.39;97111.03;4045915;29;20742;-85
2024/03/23 04:33:08;;;;;;;9.02;6.63;;;;;;;9.84;92.61;97107.78;4043675;29;20620;-85
2024/03/23 04:35:12;;;;;;;13.20;9.10;;;;;;;9.87;92.91;97115.34;4059289;29;20214;-85
2024/03/23 04:37:16;;;;;;;9.47;7.50;;;;;;;9.91;91.86;97121.97;4060695;29;20649;-85
2024/03/23 04:39:19;;;;;;;9.63;7.70;;;;;;;9.84;92.29;97132.19;4045706;29;20659;-85
2024/03/23 04:41:21;;;;;;;9.90;7.00;;;;;;;9.82;92.56;97145.34;4044525;29;21221;-85
2024/03/23 04:43:22;;;;;;;8.70;6.70;;;;;;;9.79;93.11;97162.97;4061472;29;20630;-86
2024/03/23 04:45:25;;;;;;;11.47;7.60;;;;;;;9.72;92.69;97167.84;4052421;29;20658;-85
2024/03/23 04:47:28;;;;;;;8.10;7.10;;;;;;;9.73;93.82;97181.72;4077097;29;20681;-85
2024/03/23 04:49:30;;;;;;;10.40;8.67;;;;;;;9.78;96.79;97190.78;4059252;29;21356;-85
2024/03/23 04:51:38;;;;;;;12.20;9.50;;;;;;;9.88;100.00;97189.13;4058415;29;20691;-85
2024/03/23 04:53:39;;;;;;;11.43;9.53;;;;;;;10.05;100.00;97199.84;4059488;29;20624;-86
2024/03/23 04:55:42;;;;;;;12.80;9.30;;;;;;;10.15;100.00;97199.94;4056846;29;21216;-86
2024/03/23 04:57:43;;;;;;;12.53;9.50;;;;;;;10.26;100.00;97198.13;4043772;29;20624;-86
2024/03/23 04:59:47;;;;;;;11.67;10.17;;;;;;;10.35;100.00;97190.38;4045980;29;21249;-86
2024/03/23 05:01:48;;;;;;;12.73;10.50;;;;;;;10.45;100.00;97199.13;4060641;29;21185;-86
2024/03/23 05:03:52;;;;;;;14.70;9.80;;;;;;;10.54;100.00;97192.28;4045452;29;20809;-86
2024/03/23 05:05:54;;;;;;;13.90;9.77;;;;;;;10.60;100.00;97182.22;4046969;29;20655;-86
2024/03/23 05:07:58;;;;;;;15.27;10.53;;;;;;;10.70;100.00;97188.28;4060223;29;20626;-86
2024/03/23 05:09:59;;;;;;;15.40;11.07;;;;;;;10.78;100.00;97187.66;4045923;29;20784;-86
2024/03/23 05:12:01;;;;;;;14.30;10.60;;;;;;;10.83;100.00;97183.72;4061999;29;20655;-86
2024/03/23 05:14:03;;;;;;;14.90;11.30;;;;;;;10.91;100.00;97189.94;4030124;29;20621;-86
2024/03/23 05:16:05;;;;;;;15.47;11.43;;;;;;;10.97;100.00;97192.03;4044387;29;20648;-86
2024/03/23 05:18:07;;;;;;;18.73;12.60;;;;;;;11.04;100.00;97197.56;4044335;29;20637;-85
2024/03/23 05:20:12;;;;;;;15.93;11.83;;;;;;;11.07;100.00;97185.09;4052450;29;20711;-85
2024/03/23 05:22:13;;;;;;;18.53;13.50;;;;;;;11.13;100.00;97187.19;4039816;29;20623;-85
2024/03/23 05:24:18;;;;;;;17.33;12.80;;;;;;;11.19;100.00;97193.66;4026252;29;20917;-85
2024/03/23 05:26:19;;;;;;;16.67;12.63;;;;;;;11.21;100.00;97194.34;4052197;29;21100;-85
2024/03/23 05:28:21;;;;;;;16.93;12.60;;;;;;;11.26;100.00;97197.41;4070909;29;20689;-85
2024/03/23 05:30:23;;;;;;;18.87;13.07;;;;;;;11.29;100.00;97203.19;4060303;29;20624;-85
2024/03/23 05:32:26;;;;;;;17.10;13.27;;;;;;;11.33;100.00;97205.38;4043878;29;20633;-85
2024/03/23 05:34:28;;;;;;;17.67;13.20;;;;;;;11.36;100.00;97219.97;4042274;29;20620;-85
2024/03/23 05:36:32;;;;;;;18.10;13.10;;;;;;;11.40;100.00;97213.53;4038425;29;20662;-85
2024/03/23 05:38:33;;;;;;;16.17;12.83;;;;;;;11.43;100.00;97205.44;4042740;29;20738;-85
2024/03/23 05:40:40;;;;;;;18.13;13.70;;;;;;;11.44;100.00;97207.09;4065271;29;20659;-85
2024/03/23 05:42:42;;;;;;;18.17;13.07;;;;;;;11.45;100.00;97222.63;4042798;29;20644;-85
2024/03/23 05:44:46;;;;;;;21.60;14.30;;;;;;;11.46;100.00;97220.84;4041781;29;20629;-85
2024/03/23 05:46:48;;;;;;;18.80;13.87;;;;;;;11.49;100.00;97231.06;4041849;29;20624;-85
2024/03/23 05:48:53;;;;;;;20.53;14.27;;;;;;;11.50;100.00;97236.16;4057860;29;20650;-85
2024/03/23 05:51:01;;;;;;;19.10;14.30;;;;;;;11.54;100.00;97237.53;4058934;29;20615;-85
2024/03/23 05:53:05;;;;;;;22.87;14.60;;;;;;;11.55;100.00;97241.00;4056754;29;20624;-85
2024/03/23 05:55:07;;;;;;;19.37;14.30;;;;;;;11.57;100.00;97244.28;4044723;29;20635;-85
2024/03/23 05:57:12;;;;;;;19.70;14.57;;;;;;;11.60;100.00;97249.25;4056967;29;20624;-85
2024/03/23 05:59:13;;;;;;;22.80;14.20;;;;;;;11.61;100.00;97249.13;4059853;29;20703;-85
2024/03/23 06:01:15;;;;;;;19.57;14.47;;;;;;;11.60;100.00;97247.44;4041957;29;20636;-85
2024/03/23 06:03:16;;;;;;;19.37;13.47;;;;;;;11.60;100.00;97252.69;4042620;29;20652;-85
2024/03/23 06:05:19;;;;;;;18.47;13.77;;;;;;;11.63;100.00;97254.22;4064758;29;20686;-85
2024/03/23 06:07:20;;;;;;;17.20;12.27;;;;;;;11.56;100.00;97253.91;4058894;29;21053;-85
2024/03/23 06:09:22;;;;;;;17.40;11.50;;;;;;;11.57;100.00;97257.34;4060582;29;21164;-85
2024/03/23 06:11:24;;;;;;;13.13;10.50;;;;;;;11.54;100.00;97250.59;4025458;29;20626;-84
2024/03/23 06:13:29;;;;;;;16.00;10.40;;;;;;;11.50;99.44;97259.66;4042482;29;20633;-84
2024/03/23 06:15:31;;;;;;;18.37;10.70;;;;;;;11.50;100.00;97258.81;4058723;29;20623;-85
2024/03/23 06:17:34;;;;;;;13.70;10.10;;;;;;;11.47;99.51;97253.84;4070780;29;20972;-85
2024/03/23 06:19:35;;;;;;;14.93;10.53;;;;;;;11.46;100.00;97260.03;4059197;29;21318;-86
2024/03/23 06:21:36;;;;;;;13.80;9.73;;;;;;;11.43;100.00;97242.81;4058468;29;20631;-85
2024/03/23 06:23:39;;;;;;;12.37;8.97;;;;;;;11.40;100.00;97257.94;4059613;29;21196;-85
2024/03/23 06:25:40;;;;;;;14.00;9.03;;;;;;;11.38;100.00;97254.59;4027797;29;20691;-85
2024/03/23 06:27:43;;;;;;;14.33;9.27;;;;;;;11.31;100.00;97269.97;4042182;29;20624;-85
2024/03/23 06:29:45;;;;;;;11.97;8.30;;;;;;;11.29;100.00;97271.88;4042449;29;20631;-85
2024/03/23 06:31:54;;;;;;;12.07;8.23;;;;;;;11.30;100.00;97280.53;4059657;29;20820;-85
2024/03/23 06:33:55;;;;;;;11.57;7.97;;;;;;;11.26;100.00;97284.38;4052357;29;21235;-86
2024/03/23 06:35:57;;;;;;;9.60;7.03;;;;;;;11.27;100.00;97274.75;4065457;29;20626;-85
2024/03/23 06:37:59;;;;;;;11.40;6.37;;;;;;;11.30;99.44;97277.91;4053338;29;20722;-85
2024/03/23 06:40:01;;;;;;;9.33;6.97;;;;;;;11.32;98.41;97286.44;4057121;29;21660;-85
2024/03/23 06:42:02;;;;;;;10.20;6.13;;;;;;;11.31;98.35;97292.63;4044464;29;20679;-85
2024/03/23 06:44:05;;;;;;;12.03;6.30;;;;;;;11.29;98.25;97298.00;4026718;29;20641;-85
2024/03/23 06:46:07;;;;;;;8.63;5.73;;;;;;;11.28;98.05;97316.38;4059599;29;20627;-85
2024/03/23 06:48:10;;;;;;;8.30;4.97;;;;;;;11.25;98.48;97316.63;4056901;29;20615;-85
2024/03/23 06:50:11;;;;;;;7.90;5.77;;;;;;;11.22;97.75;97316.91;4059002;29;20635;-86
2024/03/23 06:52:14;;;;;;;8.33;5.40;;;;;;;11.20;98.74;97326.66;4033838;29;20641;-85
2024/03/23 06:54:16;;;;;;;8.23;5.07;;;;;;;11.17;97.22;97326.91;4026941;29;21029;-86
2024/03/23 06:56:18;;;;;;;7.10;4.87;;;;;;;11.14;98.24;97342.81;4028876;29;21067;-85
2024/03/23 06:58:20;;;;;;;7.40;4.67;;;;;;;11.14;97.81;97347.19;4047497;29;20718;-85
2024/03/23 07:00:23;;;;;;;6.13;4.40;;;;;;;11.16;96.14;97340.06;4037022;29;20662;-85
2024/03/23 07:02:26;;;;;;;6.20;3.90;;;;;;;11.15;96.01;97347.06;4055779;29;20612;-85
2024/03/23 07:04:28;;;;;;;5.17;3.37;;;;;;;11.12;95.56;97349.91;4039372;29;20663;-86
2024/03/23 07:06:29;;;;;;;5.50;3.10;;;;;;;11.11;94.79;97365.69;4073436;29;20701;-85
2024/03/23 07:08:31;;;;;;;5.50;3.03;;;;;;;11.10;94.95;97356.25;4048175;29;20635;-87
2024/03/23 07:10:35;;;;;;;3.33;2.30;;;;;;;11.06;96.19;97360.84;4030696;29;20628;-87
2024/03/23 07:12:37;;;;;;;4.23;2.80;;;;;;;11.07;96.01;97366.94;4062744;29;20631;-86
2024/03/23 07:14:38;;;;;;;5.07;3.23;;;;;;;11.06;95.79;97365.25;4063255;29;20633;-83
2024/03/23 07:16:41;;;;;;;4.33;2.80;;;;;;;11.10;95.70;97374.50;4048717;29;20629;-86
2024/03/23 07:18:43;;;;;;;5.47;3.07;;;;;;;11.16;95.33;97377.44;4058059;29;21451;-83
2024/03/23 07:20:53;;;;;;;5.17;2.30;;;;;;;11.16;94.65;97374.81;4063229;29;20666;-82
2024/03/23 07:22:55;;;;;;;4.77;2.50;;;;;;;11.21;95.02;97379.66;4062997;29;20622;-83
2024/03/23 07:24:57;;;;;;;4.03;2.50;;;;;;;11.15;95.35;97377.56;4048469;29;20628;-83
2024/03/23 07:26:58;;;;;;;2.90;1.90;;;;;;;11.19;94.30;97384.19;4048184;29;20656;-83
2024/03/23 07:29:01;;;;;;;2.27;1.60;;;;;;;11.27;93.92;97392.22;4062746;29;20636;-83
2024/03/23 07:31:04;;;;;;;2.30;1.70;;;;;;;11.31;94.19;97384.00;4054197;29;20627;-86
2024/03/23 07:33:06;;;;;;;2.00;1.30;;;;;;;11.37;92.66;97388.72;4045102;29;20628;-84
2024/03/23 07:35:09;;;;;;;2.60;1.90;;;;;;;11.48;93.38;97406.97;4046237;29;20653;-86
2024/03/23 07:37:12;;;;;;;2.60;1.77;;;;;;;11.54;91.79;97404.66;4049086;29;20716;-82
2024/03/23 07:39:13;;;;;;;2.83;2.00;;;;;;;11.59;93.92;97415.56;4046661;29;20707;-83
2024/03/23 07:41:17;;;;;;;2.33;1.70;;;;;;;11.68;91.00;97420.03;4062374;29;21218;-84
2024/03/23 07:43:18;;;;;;;2.50;1.87;;;;;;;11.65;92.97;97412.44;4062379;29;20689;-84
2024/03/23 07:45:20;;;;;;;3.33;1.60;;;;;;;11.67;91.48;97417.56;4047892;29;20624;-84
2024/03/23 07:47:22;;;;;;;2.70;1.73;;;;;;;11.69;91.19;97420.84;4047338;29;20627;-84
2024/03/23 07:49:24;;;;;;;2.97;1.70;;;;;;;11.67;89.92;97422.78;4044285;29;20628;-84
2024/03/23 07:51:30;;;;;;;2.27;1.60;;;;;;;11.65;91.41;97419.44;4074355;28;20625;-84
2024/03/23 07:53:32;;;;;;;2.20;1.57;;;;;;;11.59;90.74;97427.78;4057209;29;21081;-83
2024/03/23 07:55:34;;;;;;;2.50;1.70;;;;;;;11.46;89.39;97434.97;4057482;29;20627;-83
2024/03/23 07:57:35;;;;;;;2.63;1.80;;;;;;;11.33;88.81;97449.97;4056979;29;20645;-83
2024/03/23 07:59:39;;;;;;;2.50;2.10;;;;;;;11.25;90.75;97452.38;4066718;29;21978;-83
2024/03/23 08:01:40;;;;;;;2.77;1.90;;;;;;;11.15;89.26;97454.06;4056398;29;20722;-83
2024/03/23 08:03:44;;;;;;;2.40;1.60;;;;;;;11.08;90.26;97460.75;4052318;29;20635;-83
2024/03/23 08:05:46;;;;;;;3.27;1.50;;;;;;;11.05;89.75;97460.97;4043804;29;21423;-83
2024/03/23 08:07:52;;;;;;;7.70;1.80;;;;;;;11.01;88.71;97453.53;4066148;29;20674;-83
2024/03/23 08:09:54;;;;;;;3.93;2.33;;;;;;;10.95;89.53;97480.91;4064506;29;21201;-84
2024/03/23 08:11:58;;;;;;;2.50;1.57;;;;;;;10.97;90.66;97484.22;4075968;29;20670;-83
2024/03/23 08:13:59;;;;;;;4.00;3.17;;;;;;;10.91;90.04;97495.16;4062071;29;20685;-84
2024/03/23 08:16:03;;;;;;;4.40;1.77;;;;;;;10.87;90.18;97492.94;4031860;29;21285;-83
2024/03/23 08:18:05;;;;;;;2.70;1.70;;;;;;;10.83;91.85;97492.31;4062645;29;20638;-84
2024/03/23 08:20:09;;;;;;;2.57;1.63;;;;;;;10.76;91.54;97481.66;4063245;29;21279;-84
2024/03/23 08:22:10;;;;;;;2.70;1.73;;;;;;;10.71;92.43;97496.88;4077336;29;20630;-84
2024/03/23 08:24:14;;;;;;;3.00;1.60;;;;;;;10.62;92.85;97503.63;4060533;29;20667;-84
2024/03/23 08:26:17;;;;;;;3.17;1.80;;;;;;;10.43;93.50;97511.22;4075150;29;20627;-84
2024/03/23 08:28:20;;;;;;;2.03;1.30;;;;;;;10.37;94.04;97529.06;4061265;29;20619;-84
2024/03/23 08:30:21;;;;;;;2.13;1.20;;;;;;;10.25;94.18;97532.63;4047841;29;20632;-84
2024/03/23 08:32:23;;;;;;;1.77;1.00;;;;;;;10.20;93.93;97545.16;4064865;29;20621;-84
2024/03/23 08:34:25;;;;;;;2.13;1.10;;;;;;;10.10;93.38;97546.84;4041628;29;20620;-84
2024/03/23 08:36:28;;;;;;;2.00;0.80;;;;;;;10.00;92.09;97540.63;4062814;29;20625;-83
2024/03/23 08:38:30;;;;;;;1.73;0.90;;;;;;;9.91;91.79;97543.06;4048008;29;21216;-84
2024/03/23 08:40:34;;;;;;;3.43;1.47;;;;;;;9.84;92.51;97547.88;4052006;29;21078;-83
2024/03/23 08:42:35;;;;;;;1.43;0.77;;;;;;;9.80;93.04;97557.81;4062326;29;20641;-83
2024/03/23 08:44:37;;;;;;;2.97;0.90;;;;;;;9.77;92.80;97574.47;4044590;29;21344;-84
2024/03/23 08:46:39;;;;;;;1.40;0.90;;;;;;;9.79;93.41;97590.00;4053809;29;20647;-83
2024/03/23 08:48:43;;;;;;;4.60;0.97;;;;;;;9.84;93.75;97618.19;4046865;29;21186;-83
2024/03/23 08:50:45;;;;;;;1.87;0.93;;;;;;;9.99;94.46;97605.88;4059928;29;20670;-83
2024/03/23 08:52:47;;;;;;;2.40;1.80;;;;;;;10.08;93.95;97624.25;4044515;29;21218;-84
2024/03/23 08:54:48;;;;;;;2.40;1.30;;;;;;;10.11;94.46;97621.41;4033510;29;20643;-84
2024/03/23 08:56:52;;;;;;;1.43;0.80;;;;;;;10.14;94.50;97628.19;4032796;29;20629;-84
2024/03/23 08:58:53;;;;;;;1.60;1.00;;;;;;;10.19;94.98;97613.84;4043247;29;20620;-83
2024/03/23 09:00:57;;;;;;;1.80;1.20;;;;;;;10.21;94.65;97617.19;4073607;29;20693;-83
2024/03/23 09:02:58;;;;;;;2.53;1.40;;;;;;;10.21;94.57;97613.75;4063417;29;20703;-83
2024/03/23 09:05:04;;;;;;;1.73;0.90;;;;;;;10.24;94.54;97630.00;4062987;29;20619;-83
2024/03/23 09:07:05;;;;;;;3.17;1.80;;;;;;;10.15;92.70;97607.22;4063965;29;20654;-83
2024/03/23 09:09:07;;;;;;;2.50;1.90;;;;;;;10.11;91.48;97591.94;4047609;29;20695;-84
2024/03/23 09:11:12;;;;;;;3.57;2.10;;;;;;;10.13;91.65;97608.28;4060201;29;20607;-84
2024/03/23 09:13:16;;;;;;;4.93;1.90;;;;;;;10.20;91.34;97596.47;4065744;29;20653;-82
2024/03/23 09:15:17;;;;;;;2.83;2.20;;;;;;;10.18;89.60;97622.63;4061905;29;20674;-82
2024/03/23 09:17:19;;;;;;;6.43;2.53;;;;;;;10.12;88.23;97633.50;4062168;29;20718;-82
2024/03/23 09:19:21;;;;;;;5.80;2.70;;;;;;;10.13;88.67;97653.44;4037070;29;20636;-83
2024/03/23 09:21:23;;;;;;;2.60;1.80;;;;;;;10.13;86.99;97645.59;4057925;29;21329;-83
2024/03/23 09:23:24;;;;;;;4.90;2.30;;;;;;;10.17;87.25;97662.66;4045403;29;20619;-83
2024/03/23 09:25:27;;;;;;;5.83;2.97;;;;;;;10.20;86.30;97678.06;4056403;29;21259;-82
2024/03/23 09:27:28;;;;;;;4.33;2.33;;;;;;;10.17;85.71;97667.88;4060319;29;20646;-83
2024/03/23 09:29:32;;;;;;;3.80;2.27;;;;;;;10.13;85.79;97686.44;4062499;29;21386;-82
2024/03/23 09:31:33;;;;;;;4.53;2.53;;;;;;;10.11;86.46;97689.16;4062161;29;20627;-82
2024/03/23 09:33:36;;;;;;;4.10;2.27;;;;;;;10.08;86.46;97694.59;4044500;29;21376;-82